Time;durP1;ratioP1;P1;durP2;ratioP2;P2;SDS_P1;SDS_P2;PMS_P1;PMS_P2;Temp;Humidity;BMP_temperature;BMP_pressure;BME280_temperature;BME280_humidity;BME280_pressure;Samples;Min_cycle;Max_cycle;Signal;HPM_P1;HPM_P2
2022/10/07 00:00:46;;;;;;;421.55;127.82;;;;;;;;;;5137940;27;20201;-75
2022/10/07 00:03:14;;;;;;;424.02;120.80;;;;;;;;;;5137025;27;20648;-75
2022/10/07 00:05:41;;;;;;;423.10;123.38;;;;;;;;;;5137899;27;20240;-75
2022/10/07 00:08:09;;;;;;;417.95;124.65;;;;;;;;;;5137532;27;20199;-75
2022/10/07 00:10:38;;;;;;;419.48;119.57;;;;;;;;;;5138167;27;20554;-75
2022/10/07 00:13:05;;;;;;;426.05;122.68;;;;;;;;;;5136516;27;20229;-76
2022/10/07 00:15:34;;;;;;;430.90;121.85;;;;;;;;;;5137412;27;20215;-76
2022/10/07 00:18:01;;;;;;;424.58;121.78;;;;;;;;;;5137893;27;20208;-76
2022/10/07 00:20:28;;;;;;;410.38;113.88;;;;;;;;;;5137818;27;20213;-76
2022/10/07 00:22:56;;;;;;;421.25;116.15;;;;;;;;;;5137039;27;20698;-76
2022/10/07 00:25:24;;;;;;;419.50;118.20;;;;;;;;;;5137179;27;20205;-76
2022/10/07 00:27:51;;;;;;;432.02;124.07;;;;;;;;;;5137744;27;20250;-76
2022/10/07 00:30:19;;;;;;;418.80;115.57;;;;;;;;;;5137741;27;20212;-76
2022/10/07 00:32:48;;;;;;;421.13;120.22;;;;;;;;;;5136601;27;20228;-76
2022/10/07 00:35:15;;;;;;;225.80;119.82;;;;;;;;;;5137535;27;20221;-75
2022/10/07 00:37:42;;;;;;;428.42;117.57;;;;;;;;;;5136661;27;20211;-76
2022/10/07 00:40:11;;;;;;;239.93;116.25;;;;;;;;;;5137553;27;20205;-76
2022/10/07 00:42:39;;;;;;;423.40;126.32;;;;;;;;;;5136581;27;20253;-76
2022/10/07 00:45:07;;;;;;;241.65;121.47;;;;;;;;;;5136429;27;20750;-76
2022/10/07 00:47:35;;;;;;;426.23;124.65;;;;;;;;;;5137374;27;20201;-75
2022/10/07 00:50:06;;;;;;;421.10;117.47;;;;;;;;;;5137386;27;20205;-75
2022/10/07 00:52:35;;;;;;;416.98;115.20;;;;;;;;;;5136190;27;20252;-76
2022/10/07 00:55:04;;;;;;;274.35;116.70;;;;;;;;;;5137121;27;20239;-76
2022/10/07 00:57:32;;;;;;;417.20;119.28;;;;;;;;;;5136964;27;20200;-75
2022/10/07 00:59:59;;;;;;;20.50;19.05;;;;;;;;;;5137178;27;20205;-76
2022/10/07 01:02:27;;;;;;;415.02;116.05;;;;;;;;;;5136435;27;20225;-76
2022/10/07 01:04:55;;;;;;;317.52;127.45;;;;;;;;;;5136231;27;20205;-75
2022/10/07 01:07:24;;;;;;;416.83;114.47;;;;;;;;;;5136448;27;20212;-76
2022/10/07 01:09:53;;;;;;;429.92;118.63;;;;;;;;;;5136687;27;20208;-75
2022/10/07 01:12:24;;;;;;;248.55;117.50;;;;;;;;;;5135672;27;20240;-76
2022/10/07 01:14:55;;;;;;;428.30;116.47;;;;;;;;;;5135968;27;20631;-76
2022/10/07 01:17:26;;;;;;;419.02;115.28;;;;;;;;;;5136191;27;20237;-76
2022/10/07 01:20:17;;;;;;;421.85;124.43;;;;;;;;;;5136495;27;20213;-76
2022/10/07 01:22:50;;;;;;;420.38;114.88;;;;;;;;;;5120486;27;20580;-76
2022/10/07 01:25:26;;;;;;;416.38;115.65;;;;;;;;;;5136253;27;20202;-75
2022/10/07 01:27:56;;;;;;;432.05;117.95;;;;;;;;;;5135878;27;20191;-76
2022/10/07 01:30:23;;;;;;;414.20;113.15;;;;;;;;;;5136781;27;20209;-75
2022/10/07 01:32:53;;;;;;;417.65;114.93;;;;;;;;;;5135414;27;20228;-76
2022/10/07 01:35:23;;;;;;;413.67;112.57;;;;;;;;;;5136014;27;20211;-75
2022/10/07 01:37:53;;;;;;;413.60;114.35;;;;;;;;;;5136449;27;20546;-75
2022/10/07 01:40:22;;;;;;;414.30;112.68;;;;;;;;;;5136381;27;20196;-75
2022/10/07 01:42:50;;;;;;;412.73;112.57;;;;;;;;;;5135112;27;20233;-76
2022/10/07 01:45:21;;;;;;;440.35;120.15;;;;;;;;;;5136301;27;20217;-76
2022/10/07 01:47:49;;;;;;;411.00;112.53;;;;;;;;;;5135845;27;20632;-75
2022/10/07 01:50:17;;;;;;;415.02;116.90;;;;;;;;;;5136108;27;20216;-76
2022/10/07 01:52:52;;;;;;;419.45;115.75;;;;;;;;;;5135110;27;20221;-76
2022/10/07 01:55:27;;;;;;;416.92;113.90;;;;;;;;;;5136081;27;20197;-75
2022/10/07 01:57:59;;;;;;;256.52;117.20;;;;;;;;;;5135197;27;20291;-75
2022/10/07 02:00:28;;;;;;;285.65;115.50;;;;;;;;;;5135634;27;20189;-76
2022/10/07 02:03:03;;;;;;;416.52;111.60;;;;;;;;;;5134720;27;20228;-76
2022/10/07 02:05:37;;;;;;;409.08;112.38;;;;;;;;;;5135291;27;20192;-76
2022/10/07 02:08:10;;;;;;;410.85;114.43;;;;;;;;;;5135538;27;20182;-76
2022/10/07 02:10:45;;;;;;;412.33;112.10;;;;;;;;;;5135833;27;20188;-76
2022/10/07 02:13:14;;;;;;;275.73;117.57;;;;;;;;;;5134771;27;20227;-75
2022/10/07 02:15:45;;;;;;;412.05;111.88;;;;;;;;;;5135336;27;20698;-75
2022/10/07 02:18:14;;;;;;;423.45;116.43;;;;;;;;;;5135362;27;20189;-75
2022/10/07 02:20:42;;;;;;;409.90;112.40;;;;;;;;;;5135293;27;20218;-75
2022/10/07 02:23:11;;;;;;;408.42;108.30;;;;;;;;;;5134165;27;20255;-75
2022/10/07 02:25:40;;;;;;;419.65;114.85;;;;;;;;;;5134957;27;20201;-76
2022/10/07 02:28:07;;;;;;;415.75;113.18;;;;;;;;;;5135935;27;20301;-75
2022/10/07 02:30:35;;;;;;;411.20;110.47;;;;;;;;;;5135508;27;20204;-75
2022/10/07 02:33:05;;;;;;;412.27;108.70;;;;;;;;;;5133821;27;20307;-76
2022/10/07 02:35:34;;;;;;;412.75;112.65;;;;;;;;;;5135401;27;20231;-75
2022/10/07 02:38:05;;;;;;;409.58;112.57;;;;;;;;;;5134902;27;20205;-75
2022/10/07 02:40:36;;;;;;;410.13;107.63;;;;;;;;;;5135252;27;20209;-75
2022/10/07 02:43:05;;;;;;;416.45;109.00;;;;;;;;;;5133969;27;20223;-75
2022/10/07 02:45:35;;;;;;;406.15;106.40;;;;;;;;;;5135111;27;20689;-75
2022/10/07 02:48:06;;;;;;;416.50;110.95;;;;;;;;;;5134572;27;20195;-75
2022/10/07 02:50:37;;;;;;;403.45;110.15;;;;;;;;;;5134722;27;20209;-76
2022/10/07 02:53:05;;;;;;;408.23;111.85;;;;;;;;;;5133815;27;20246;-76
2022/10/07 02:55:33;;;;;;;286.88;110.18;;;;;;;;;;5134856;27;20196;-75
2022/10/07 02:58:02;;;;;;;408.88;109.53;;;;;;;;;;5134483;27;20264;-76
2022/10/07 03:00:31;;;;;;;408.10;110.25;;;;;;;;;;5134882;27;20208;-75
2022/10/07 03:03:01;;;;;;;422.35;113.35;;;;;;;;;;5133908;27;20228;-76
2022/10/07 03:05:30;;;;;;;409.45;109.57;;;;;;;;;;5134815;27;20700;-75
2022/10/07 03:07:58;;;;;;;410.67;108.93;;;;;;;;;;5134597;27;20201;-75
2022/10/07 03:10:27;;;;;;;409.50;109.30;;;;;;;;;;5134956;27;20553;-77
2022/10/07 03:12:55;;;;;;;411.95;107.78;;;;;;;;;;5133824;27;20604;-78
2022/10/07 03:15:23;;;;;;;410.92;107.55;;;;;;;;;;5133949;27;20219;-77
2022/10/07 03:17:50;;;;;;;405.23;109.78;;;;;;;;;;5134638;28;20228;-78
2022/10/07 03:20:18;;;;;;;405.60;106.43;;;;;;;;;;5134428;28;20571;-78
2022/10/07 03:22:46;;;;;;;414.88;108.97;;;;;;;;;;5134229;28;20220;-75
2022/10/07 03:25:14;;;;;;;415.08;107.15;;;;;;;;;;5134109;27;20574;-76
2022/10/07 03:27:42;;;;;;;403.65;107.03;;;;;;;;;;5134373;28;20196;-75
2022/10/07 03:30:10;;;;;;;300.95;112.93;;;;;;;;;;5134317;28;20204;-75
2022/10/07 03:32:39;;;;;;;375.98;115.70;;;;;;;;;;5133623;28;20227;-75
2022/10/07 03:35:07;;;;;;;369.13;111.63;;;;;;;;;;5133728;27;20260;-76
2022/10/07 03:37:35;;;;;;;379.40;110.38;;;;;;;;;;5134158;28;20228;-75
2022/10/07 03:40:04;;;;;;;405.40;109.30;;;;;;;;;;5134461;28;20299;-75
2022/10/07 03:42:31;;;;;;;404.17;108.90;;;;;;;;;;5133830;28;20247;-76
2022/10/07 03:44:58;;;;;;;410.20;118.25;;;;;;;;;;5133680;27;20212;-75
2022/10/07 03:47:26;;;;;;;410.15;107.30;;;;;;;;;;5134129;28;20208;-75
2022/10/07 03:49:54;;;;;;;406.10;105.45;;;;;;;;;;5134235;28;20270;-75
2022/10/07 03:52:21;;;;;;;383.15;113.68;;;;;;;;;;5133362;27;20228;-74
2022/10/07 03:54:49;;;;;;;408.77;106.95;;;;;;;;;;5133852;28;20669;-76
2022/10/07 04:00:02;;;;;;;408.40;106.30;;;;;;;;;;5134141;28;20327;-75
2022/10/07 04:02:29;;;;;;;419.23;107.93;;;;;;;;;;5133565;28;20228;-75
2022/10/07 04:04:57;;;;;;;404.65;106.47;;;;;;;;;;5133770;28;20204;-75
2022/10/07 04:07:24;;;;;;;409.95;108.43;;;;;;;;;;5133358;27;20200;-76
2022/10/07 04:09:51;;;;;;;389.35;113.30;;;;;;;;;;5133893;28;20231;-75
2022/10/07 04:12:20;;;;;;;406.83;106.82;;;;;;;;;;5133385;28;20228;-76
2022/10/07 04:14:47;;;;;;;406.92;108.97;;;;;;;;;;5134012;28;20211;-76
2022/10/07 04:17:14;;;;;;;412.65;105.43;;;;;;;;;;5134025;28;20231;-76
2022/10/07 04:19:42;;;;;;;409.02;108.90;;;;;;;;;;5133813;27;20200;-74
2022/10/07 04:22:09;;;;;;;429.30;116.65;;;;;;;;;;5136307;27;20207;-76
2022/10/07 04:24:37;;;;;;;416.80;110.63;;;;;;;;;;5137261;27;20189;-75
2022/10/07 04:27:04;;;;;;;411.08;110.35;;;;;;;;;;5137684;27;20672;-75
2022/10/07 04:29:33;;;;;;;344.95;109.53;;;;;;;;;;5137659;27;20231;-75
2022/10/07 04:32:00;;;;;;;411.67;109.95;;;;;;;;;;5136777;27;20224;-75
2022/10/07 04:34:29;;;;;;;407.23;106.93;;;;;;;;;;5136788;27;20211;-76
2022/10/07 04:36:56;;;;;;;416.27;108.50;;;;;;;;;;5136503;27;20224;-75
2022/10/07 04:39:24;;;;;;;403.95;107.80;;;;;;;;;;5137535;27;20197;-75
2022/10/07 04:41:53;;;;;;;410.60;110.85;;;;;;;;;;5136812;27;20208;-75
2022/10/07 04:44:20;;;;;;;348.17;110.80;;;;;;;;;;5136693;27;20209;-76
2022/10/07 04:46:50;;;;;;;401.42;105.53;;;;;;;;;;5137019;27;20200;-75
2022/10/07 04:49:17;;;;;;;327.90;112.80;;;;;;;;;;5137433;27;20204;-75
2022/10/07 04:51:45;;;;;;;21.33;20.02;;;;;;;;;;5136776;27;20215;-75
2022/10/07 04:54:12;;;;;;;405.77;108.28;;;;;;;;;;5136850;27;20228;-75
2022/10/07 04:56:39;;;;;;;408.35;108.97;;;;;;;;;;5136665;27;20217;-75
2022/10/07 04:59:07;;;;;;;352.73;113.38;;;;;;;;;;5136716;27;20671;-75
2022/10/07 05:01:34;;;;;;;407.17;109.88;;;;;;;;;;5135514;27;20227;-76
2022/10/07 05:04:03;;;;;;;408.17;108.88;;;;;;;;;;5136450;27;20225;-74
2022/10/07 05:06:31;;;;;;;421.70;110.80;;;;;;;;;;5137115;27;20212;-76
2022/10/07 05:08:58;;;;;;;406.02;106.63;;;;;;;;;;5136753;27;20682;-75
2022/10/07 05:11:26;;;;;;;364.88;113.45;;;;;;;;;;5136421;27;20860;-76
2022/10/07 05:13:53;;;;;;;357.45;113.75;;;;;;;;;;5135937;27;20239;-75
2022/10/07 05:16:20;;;;;;;363.23;112.47;;;;;;;;;;5136551;27;20201;-75
2022/10/07 05:18:48;;;;;;;367.05;113.20;;;;;;;;;;5136499;27;20208;-75
2022/10/07 05:21:16;;;;;;;411.00;106.82;;;;;;;;;;5135964;27;20204;-76
2022/10/07 05:23:43;;;;;;;403.55;106.47;;;;;;;;;;5135723;27;20221;-75
2022/10/07 05:26:12;;;;;;;408.73;106.53;;;;;;;;;;5136382;27;20204;-75
2022/10/07 05:28:40;;;;;;;378.27;109.05;;;;;;;;;;5136355;27;20236;-75
2022/10/07 05:31:08;;;;;;;420.17;112.75;;;;;;;;;;5136084;27;20205;-76
2022/10/07 05:33:36;;;;;;;413.65;107.25;;;;;;;;;;5135873;27;20224;-75
2022/10/07 05:36:05;;;;;;;409.25;107.13;;;;;;;;;;5136642;27;20247;-76
2022/10/07 05:38:34;;;;;;;406.35;107.55;;;;;;;;;;5136168;27;20615;-76
2022/10/07 05:41:02;;;;;;;418.50;114.57;;;;;;;;;;5135390;27;20204;-76
2022/10/07 05:43:30;;;;;;;406.88;108.55;;;;;;;;;;5135884;27;20220;-76
2022/10/07 05:46:00;;;;;;;402.42;107.57;;;;;;;;;;5135960;27;20214;-75
2022/10/07 05:48:29;;;;;;;407.95;112.90;;;;;;;;;;5136146;27;20205;-76
2022/10/07 05:50:56;;;;;;;411.38;107.78;;;;;;;;;;5135793;27;20200;-76
2022/10/07 05:53:24;;;;;;;407.08;110.40;;;;;;;;;;5135594;27;20221;-75
2022/10/07 05:55:53;;;;;;;409.95;110.32;;;;;;;;;;5135348;27;20212;-73
2022/10/07 05:58:21;;;;;;;405.65;109.10;;;;;;;;;;5135686;27;20220;-72
2022/10/07 06:00:51;;;;;;;407.27;106.65;;;;;;;;;;5135746;27;20287;-74
2022/10/07 06:03:19;;;;;;;391.02;111.28;;;;;;;;;;5135277;27;20220;-76
2022/10/07 06:05:46;;;;;;;403.35;107.20;;;;;;;;;;5135022;27;20319;-74
2022/10/07 06:08:13;;;;;;;404.15;106.93;;;;;;;;;;5135404;27;20196;-72
2022/10/07 06:13:27;;;;;;;408.73;107.70;;;;;;;;;;5135524;27;20576;-72
2022/10/07 06:15:54;;;;;;;416.02;105.88;;;;;;;;;;5134526;27;20221;-73
2022/10/07 06:18:21;;;;;;;405.42;112.45;;;;;;;;;;5135396;27;20585;-72
2022/10/07 06:20:55;;;;;;;399.95;105.95;;;;;;;;;;5135491;27;20204;-73
2022/10/07 06:23:22;;;;;;;406.25;106.78;;;;;;;;;;5135715;27;20260;-72
2022/10/07 06:25:53;;;;;;;413.40;109.40;;;;;;;;;;5135340;27;20208;-73
2022/10/07 06:28:21;;;;;;;405.52;110.32;;;;;;;;;;5134842;27;20220;-72
2022/10/07 06:30:50;;;;;;;406.98;109.28;;;;;;;;;;5134957;27;20236;-73
2022/10/07 06:33:18;;;;;;;413.65;112.97;;;;;;;;;;5134451;27;20220;-72
2022/10/07 06:35:46;;;;;;;421.02;112.35;;;;;;;;;;5133687;27;20668;-73
2022/10/07 06:38:13;;;;;;;410.95;109.63;;;;;;;;;;5133915;27;20228;-72
2022/10/07 06:40:40;;;;;;;404.23;108.88;;;;;;;;;;5134526;27;20211;-72
2022/10/07 06:43:07;;;;;;;414.00;111.25;;;;;;;;;;5134100;27;20224;-73
2022/10/07 06:45:35;;;;;;;411.80;111.68;;;;;;;;;;5134865;27;20212;-72
2022/10/07 06:48:04;;;;;;;312.58;119.22;;;;;;;;;;5134672;27;20709;-73
2022/10/07 06:50:31;;;;;;;409.75;115.40;;;;;;;;;;5135216;27;20208;-73
2022/10/07 06:52:59;;;;;;;409.55;111.28;;;;;;;;;;5133810;27;20226;-72
2022/10/07 06:55:26;;;;;;;408.30;116.07;;;;;;;;;;5135132;27;20208;-72
2022/10/07 06:57:53;;;;;;;364.27;119.47;;;;;;;;;;5134528;27;20224;-72
2022/10/07 07:00:21;;;;;;;436.05;121.75;;;;;;;;;;5134385;27;20237;-73
2022/10/07 07:02:48;;;;;;;427.45;123.95;;;;;;;;;;5133589;27;20651;-73
2022/10/07 07:05:17;;;;;;;427.13;120.93;;;;;;;;;;5134015;27;20204;-72
2022/10/07 07:07:45;;;;;;;421.38;123.60;;;;;;;;;;5134445;27;20197;-73
2022/10/07 07:10:12;;;;;;;384.70;125.55;;;;;;;;;;5134686;27;20205;-72
2022/10/07 07:12:39;;;;;;;367.23;126.68;;;;;;;;;;5132931;27;20239;-72
2022/10/07 07:15:07;;;;;;;431.90;131.07;;;;;;;;;;5137248;27;20208;-84
2022/10/07 07:17:35;;;;;;;424.27;124.85;;;;;;;;;;5141543;28;20288;-86
2022/10/07 07:20:02;;;;;;;433.65;123.97;;;;;;;;;;5143932;28;20216;-83
2022/10/07 07:22:31;;;;;;;413.98;120.43;;;;;;;;;;5141692;27;20227;-73
2022/10/07 07:24:58;;;;;;;352.25;129.85;;;;;;;;;;5136696;27;20204;-85
2022/10/07 07:27:26;;;;;;;416.58;125.97;;;;;;;;;;5134522;28;20220;-73
2022/10/07 07:29:53;;;;;;;418.42;121.45;;;;;;;;;;5134278;28;20220;-72
2022/10/07 07:32:20;;;;;;;404.17;135.40;;;;;;;;;;5133608;27;20232;-73
2022/10/07 07:34:47;;;;;;;430.35;126.88;;;;;;;;;;5134657;27;20204;-73
2022/10/07 07:37:15;;;;;;;422.75;126.88;;;;;;;;;;5134341;28;20208;-72
2022/10/07 07:39:44;;;;;;;429.02;128.98;;;;;;;;;;5134499;27;20212;-76
2022/10/07 07:42:12;;;;;;;435.38;132.60;;;;;;;;;;5135484;28;20213;-90
2022/10/07 07:44:40;;;;;;;425.48;127.32;;;;;;;;;;5135876;28;20208;-90
2022/10/07 07:47:07;;;;;;;428.20;126.07;;;;;;;;;;5136710;28;20200;-89
2022/10/07 07:49:35;;;;;;;423.73;132.57;;;;;;;;;;5136510;28;20201;-89
2022/10/07 07:52:04;;;;;;;433.38;134.32;;;;;;;;;;5135821;27;20692;-90
2022/10/07 07:54:32;;;;;;;428.33;135.20;;;;;;;;;;5134654;27;20280;-75
2022/10/07 07:57:01;;;;;;;431.10;134.95;;;;;;;;;;5137700;27;20201;-73
2022/10/07 07:59:30;;;;;;;429.58;136.05;;;;;;;;;;5138338;27;20232;-73
2022/10/07 08:01:57;;;;;;;427.50;130.75;;;;;;;;;;5137342;27;20201;-74
2022/10/07 08:04:25;;;;;;;431.02;138.57;;;;;;;;;;5137391;27;20231;-73
2022/10/07 08:06:52;;;;;;;434.30;134.60;;;;;;;;;;5137827;27;20205;-72
2022/10/07 08:09:19;;;;;;;445.55;143.85;;;;;;;;;;5137635;27;20202;-76
2022/10/07 08:11:47;;;;;;;427.00;141.77;;;;;;;;;;5137764;27;20209;-75
2022/10/07 08:14:16;;;;;;;431.80;138.52;;;;;;;;;;5137446;27;20236;-75
2022/10/07 08:16:44;;;;;;;432.45;144.82;;;;;;;;;;5137044;27;20201;-75
2022/10/07 08:19:12;;;;;;;425.02;140.27;;;;;;;;;;5137344;27;20231;-72
2022/10/07 08:21:39;;;;;;;431.88;145.57;;;;;;;;;;5137142;27;20201;-73
2022/10/07 08:24:08;;;;;;;437.02;148.82;;;;;;;;;;5137819;27;20217;-73
2022/10/07 08:26:37;;;;;;;445.17;147.90;;;;;;;;;;5136524;27;20209;-76
2022/10/07 08:29:05;;;;;;;421.40;156.93;;;;;;;;;;5137360;27;20228;-73
2022/10/07 08:31:34;;;;;;;427.30;146.98;;;;;;;;;;5136918;27;20208;-73
2022/10/07 08:34:02;;;;;;;438.83;152.48;;;;;;;;;;5137414;27;20286;-73
2022/10/07 08:36:31;;;;;;;448.02;155.32;;;;;;;;;;5137641;27;20597;-73
2022/10/07 08:38:59;;;;;;;424.00;162.73;;;;;;;;;;5136831;27;20567;-73
2022/10/07 08:41:37;;;;;;;19.97;18.57;;;;;;;;;;5137101;27;20201;-73
2022/10/07 08:44:15;;;;;;;462.65;164.65;;;;;;;;;;5136751;27;20462;-73
2022/10/07 08:46:47;;;;;;;445.80;167.20;;;;;;;;;;5137028;27;20204;-73
2022/10/07 08:49:16;;;;;;;440.52;158.18;;;;;;;;;;5139583;27;20203;-86
2022/10/07 08:51:47;;;;;;;450.55;154.95;;;;;;;;;;5140875;27;20198;-86
2022/10/07 08:54:15;;;;;;;452.10;184.45;;;;;;;;;;5137510;27;20221;-75
2022/10/07 08:56:43;;;;;;;442.50;160.48;;;;;;;;;;5137380;27;20649;-73
2022/10/07 08:59:16;;;;;;;441.13;162.20;;;;;;;;;;5134262;27;20228;-73
2022/10/07 09:01:58;;;;;;;445.15;173.18;;;;;;;;;;5136365;27;20186;-74
2022/10/07 09:04:33;;;;;;;448.17;161.50;;;;;;;;;;5136591;27;20261;-76
2022/10/07 09:07:02;;;;;;;445.40;165.95;;;;;;;;;;5136407;27;20237;-73
2022/10/07 09:09:34;;;;;;;448.02;166.98;;;;;;;;;;5136130;27;20692;-73
2022/10/07 09:12:03;;;;;;;474.40;188.02;;;;;;;;;;5135850;27;20548;-74
2022/10/07 09:14:32;;;;;;;448.50;173.40;;;;;;;;;;5136213;27;20228;-74
2022/10/07 09:17:04;;;;;;;450.50;195.27;;;;;;;;;;5137172;27;20228;-73
2022/10/07 09:19:35;;;;;;;449.98;185.25;;;;;;;;;;5134304;27;20201;-74
2022/10/07 09:22:05;;;;;;;447.33;176.82;;;;;;;;;;5135179;27;20241;-74
2022/10/07 09:24:32;;;;;;;450.35;182.93;;;;;;;;;;5136728;27;20274;-74
2022/10/07 09:27:01;;;;;;;445.45;183.63;;;;;;;;;;5136060;27;20211;-74
2022/10/07 09:29:30;;;;;;;450.30;178.77;;;;;;;;;;5136431;27;20206;-74
2022/10/07 09:31:58;;;;;;;455.75;188.00;;;;;;;;;;5135567;27;20205;-74
2022/10/07 09:34:28;;;;;;;447.45;192.73;;;;;;;;;;5136659;27;20202;-73
2022/10/07 09:37:15;;;;;;;445.63;178.15;;;;;;;;;;5135867;27;20210;-73
2022/10/07 09:39:43;;;;;;;432.70;205.23;;;;;;;;;;5136140;27;20274;-74
2022/10/07 09:42:16;;;;;;;446.90;187.98;;;;;;;;;;5135629;27;20479;-73
2022/10/07 09:44:50;;;;;;;456.13;206.48;;;;;;;;;;5136031;27;20232;-73
2022/10/07 09:47:21;;;;;;;453.08;200.55;;;;;;;;;;5135961;27;20602;-74
2022/10/07 09:49:53;;;;;;;457.13;219.43;;;;;;;;;;5135498;27;20630;-73
2022/10/07 09:52:22;;;;;;;461.33;207.23;;;;;;;;;;5135181;27;20224;-74
2022/10/07 09:54:50;;;;;;;458.45;205.00;;;;;;;;;;5135770;27;20232;-73
2022/10/07 09:57:35;;;;;;;460.67;219.73;;;;;;;;;;5135983;27;20213;-74
2022/10/07 10:00:20;;;;;;;457.70;219.55;;;;;;;;;;5135298;27;20226;-74
2022/10/07 10:02:49;;;;;;;454.48;211.75;;;;;;;;;;5134550;27;20221;-73
2022/10/07 10:05:22;;;;;;;447.30;199.05;;;;;;;;;;5135765;27;20202;-73
2022/10/07 10:07:53;;;;;;;453.58;203.48;;;;;;;;;;5136554;27;20265;-73
2022/10/07 10:10:23;;;;;;;460.40;224.13;;;;;;;;;;5135512;27;20550;-73
2022/10/07 10:12:52;;;;;;;461.40;221.10;;;;;;;;;;5134810;27;20237;-74
2022/10/07 10:15:24;;;;;;;459.77;218.18;;;;;;;;;;5135040;27;20206;-73
2022/10/07 10:17:53;;;;;;;460.27;233.03;;;;;;;;;;5134858;27;20186;-73
2022/10/07 10:20:30;;;;;;;458.55;217.60;;;;;;;;;;5135101;27;20471;-73
2022/10/07 10:22:58;;;;;;;458.23;231.55;;;;;;;;;;5134969;27;20225;-73
2022/10/07 10:28:15;;;;;;;461.77;234.88;;;;;;;;;;5135582;27;20190;-73
2022/10/07 10:30:47;;;;;;;464.08;236.43;;;;;;;;;;5135289;27;20213;-73
2022/10/07 10:33:18;;;;;;;460.88;232.85;;;;;;;;;;5134106;27;20275;-77
2022/10/07 10:35:51;;;;;;;463.00;246.50;;;;;;;;;;5135335;27;20205;-73
2022/10/07 10:38:28;;;;;;;462.88;240.95;;;;;;;;;;5135555;27;20310;-74
2022/10/07 10:41:00;;;;;;;471.88;266.50;;;;;;;;;;5143930;27;20610;-84
2022/10/07 10:43:29;;;;;;;465.02;249.45;;;;;;;;;;5139298;27;20222;-81
2022/10/07 10:46:02;;;;;;;466.33;242.88;;;;;;;;;;5141614;27;20197;-81
2022/10/07 10:48:33;;;;;;;474.10;258.55;;;;;;;;;;5126883;27;20184;-80
2022/10/07 10:51:12;;;;;;;468.05;244.82;;;;;;;;;;5134472;27;20205;-73
2022/10/07 10:53:45;;;;;;;458.10;246.10;;;;;;;;;;5136618;27;20229;-84
2022/10/07 10:56:18;;;;;;;468.40;252.93;;;;;;;;;;5142765;27;20203;-83
2022/10/07 10:58:54;;;;;;;474.33;253.75;;;;;;;;;;5142739;27;20210;-86
2022/10/07 11:01:24;;;;;;;469.85;254.77;;;;;;;;;;5141947;27;20281;-80
2022/10/07 11:04:03;;;;;;;469.70;252.35;;;;;;;;;;5134351;27;20230;-73
2022/10/07 11:06:34;;;;;;;470.25;281.80;;;;;;;;;;5135459;27;20236;-75
2022/10/07 11:09:02;;;;;;;472.67;257.80;;;;;;;;;;5134667;27;20193;-75
2022/10/07 11:11:29;;;;;;;472.35;264.58;;;;;;;;;;5136014;27;20320;-76
2022/10/07 11:13:59;;;;;;;471.87;268.43;;;;;;;;;;5136196;27;20731;-81
2022/10/07 11:16:28;;;;;;;476.02;289.88;;;;;;;;;;5135703;27;20455;-81
2022/10/07 11:18:56;;;;;;;471.27;265.13;;;;;;;;;;5137927;28;20647;-74
2022/10/07 11:21:25;;;;;;;467.08;268.60;;;;;;;;;;5133712;28;20450;-74
2022/10/07 11:23:58;;;;;;;473.37;286.17;;;;;;;;;;5134454;28;20612;-74
2022/10/07 11:26:29;;;;;;;477.37;285.37;;;;;;;;;;5134446;27;20464;-74
2022/10/07 11:28:58;;;;;;;466.23;267.60;;;;;;;;;;5131630;27;20448;-73
2022/10/07 11:31:31;;;;;;;475.50;285.40;;;;;;;;;;5137866;27;20198;-74
2022/10/07 11:34:05;;;;;;;474.33;289.77;;;;;;;;;;5130647;27;20221;-74
2022/10/07 11:36:38;;;;;;;472.27;291.83;;;;;;;;;;5138472;27;20435;-74
2022/10/07 11:39:06;;;;;;;416.37;325.53;;;;;;;;;;5138252;27;20492;-74
2022/10/07 11:41:35;;;;;;;477.63;300.03;;;;;;;;;;5137912;27;20449;-74
2022/10/07 11:44:08;;;;;;;383.87;329.33;;;;;;;;;;5138821;27;20511;-74
2022/10/07 11:46:37;;;;;;;486.73;328.80;;;;;;;;;;5138494;27;20782;-74
2022/10/07 11:49:06;;;;;;;485.07;308.07;;;;;;;;;;5137951;27;20459;-74
2022/10/07 11:51:34;;;;;;;479.60;297.63;;;;;;;;;;5137814;27;20442;-74
2022/10/07 11:54:03;;;;;;;481.05;305.33;;;;;;;;;;5138009;27;20474;-74
2022/10/07 11:56:34;;;;;;;494.83;311.00;;;;;;;;;;5138155;27;20218;-74
2022/10/07 11:59:02;;;;;;;481.30;307.43;;;;;;;;;;5137359;27;20483;-74
2022/10/07 12:01:41;;;;;;;480.50;291.50;;;;;;;;;;5136950;27;20445;-74
2022/10/07 12:04:23;;;;;;;491.73;314.23;;;;;;;;;;5137999;27;20230;-74
2022/10/07 12:07:10;;;;;;;485.93;320.60;;;;;;;;;;5138762;27;20431;-76
2022/10/07 12:10:08;;;;;;;490.13;299.47;;;;;;;;;;5138563;27;20453;-73
2022/10/07 12:12:48;;;;;;;477.67;301.63;;;;;;;;;;5137650;27;20513;-74
2022/10/07 12:15:24;;;;;;;481.03;311.90;;;;;;;;;;5137707;27;20809;-74
2022/10/07 12:17:54;;;;;;;410.30;345.17;;;;;;;;;;5142973;27;20436;-74
2022/10/07 12:20:43;;;;;;;491.07;323.03;;;;;;;;;;5159250;27;20491;-83
2022/10/07 12:23:29;;;;;;;481.40;317.43;;;;;;;;;;5135123;27;20472;-81
2022/10/07 12:25:58;;;;;;;480.57;308.43;;;;;;;;;;5159005;27;20500;-76
2022/10/07 12:28:27;;;;;;;441.83;378.33;;;;;;;;;;5161931;27;20464;-80
2022/10/07 12:30:55;;;;;;;505.13;353.83;;;;;;;;;;5160890;27;20443;-75
2022/10/07 12:33:29;;;;;;;480.88;304.58;;;;;;;;;;5160867;27;20468;-77
2022/10/07 12:35:56;;;;;;;440.33;359.70;;;;;;;;;;5162686;27;20206;-78
2022/10/07 12:38:25;;;;;;;485.07;328.73;;;;;;;;;;5161746;27;20478;-81
2022/10/07 12:41:07;;;;;;;488.13;316.67;;;;;;;;;;5158498;27;20508;-72
2022/10/07 12:43:45;;;;;;;484.67;326.20;;;;;;;;;;5156132;27;20512;-73
2022/10/07 12:46:14;;;;;;;438.73;349.33;;;;;;;;;;5157647;27;20420;-74
2022/10/07 12:48:44;;;;;;;480.93;317.17;;;;;;;;;;5158080;27;20474;-73
2022/10/07 12:51:17;;;;;;;504.40;336.37;;;;;;;;;;5157463;27;20452;-73
2022/10/07 12:53:46;;;;;;;489.33;329.57;;;;;;;;;;5156877;27;20476;-73
2022/10/07 12:56:18;;;;;;;483.77;374.73;;;;;;;;;;5157205;27;20462;-73
2022/10/07 13:01:43;;;;;;;476.40;311.33;;;;;;;;;;5157568;27;20405;-73
2022/10/07 13:04:25;;;;;;;490.93;309.60;;;;;;;;;;5157574;27;20465;-74
2022/10/07 13:07:11;;;;;;;496.23;362.43;;;;;;;;;;5155305;27;20459;-73
2022/10/07 13:09:47;;;;;;;496.03;374.10;;;;;;;;;;5157749;27;20425;-73
2022/10/07 13:12:44;;;;;;;487.53;324.90;;;;;;;;;;5157225;27;20479;-73
2022/10/07 13:15:18;;;;;;;490.90;379.97;;;;;;;;;;5093257;28;20471;-73
2022/10/07 13:17:47;;;;;;;476.30;359.23;;;;;;;;;;5145588;27;20470;-73
2022/10/07 13:20:20;;;;;;;491.93;353.63;;;;;;;;;;5157283;27;20481;-73
2022/10/07 13:22:48;;;;;;;497.50;352.57;;;;;;;;;;5156571;27;20491;-73
2022/10/07 13:25:18;;;;;;;482.57;318.97;;;;;;;;;;5156945;27;20459;-73
2022/10/07 13:27:47;;;;;;;488.47;333.37;;;;;;;;;;5157173;27;20464;-73
2022/10/07 13:30:29;;;;;;;482.23;330.60;;;;;;;;;;5157383;27;20448;-73
2022/10/07 13:33:12;;;;;;;439.37;391.97;;;;;;;;;;5156846;27;20465;-73
2022/10/07 13:35:40;;;;;;;458.63;361.27;;;;;;;;;;5156578;27;20467;-73
2022/10/07 13:38:21;;;;;;;485.20;324.57;;;;;;;;;;5157150;27;20445;-73
2022/10/07 13:40:53;;;;;;;480.40;330.77;;;;;;;;;;5156750;27;20464;-76
2022/10/07 13:43:22;;;;;;;488.80;335.80;;;;;;;;;;5156840;27;20476;-73
2022/10/07 13:45:49;;;;;;;489.63;332.93;;;;;;;;;;5156201;27;20927;-74
2022/10/07 13:48:19;;;;;;;478.97;321.87;;;;;;;;;;5156998;27;20441;-73
2022/10/07 13:50:48;;;;;;;477.63;354.87;;;;;;;;;;5156908;27;20445;-73
2022/10/07 13:53:19;;;;;;;484.80;331.67;;;;;;;;;;5155160;27;20473;-73
2022/10/07 13:55:46;;;;;;;463.10;405.77;;;;;;;;;;5156906;27;20426;-73
2022/10/07 13:58:14;;;;;;;491.47;350.07;;;;;;;;;;5156030;27;20464;-73
2022/10/07 14:00:42;;;;;;;489.20;341.50;;;;;;;;;;5157033;27;20977;-73
2022/10/07 14:03:13;;;;;;;490.40;366.23;;;;;;;;;;5155824;27;21005;-73
2022/10/07 14:05:48;;;;;;;479.58;329.60;;;;;;;;;;5156757;27;20452;-73
2022/10/07 14:08:20;;;;;;;479.90;331.60;;;;;;;;;;5156211;27;20202;-73
2022/10/07 14:10:51;;;;;;;489.40;337.37;;;;;;;;;;5156347;27;20472;-73
2022/10/07 14:13:19;;;;;;;482.92;340.55;;;;;;;;;;5155847;27;20476;-72
2022/10/07 14:15:47;;;;;;;480.30;326.27;;;;;;;;;;5156114;27;20201;-73
2022/10/07 14:18:16;;;;;;;479.83;322.58;;;;;;;;;;5155817;27;20499;-73